Terminal Aerodrome Forecast
Issued by NWS

Home | Current Version | Previous Version | Text Only | Print | Product List | Glossary On
Versions: 1 2 3 4 5 6 7 8 9 10 11 12 13
000
FTPA31 PHFO 302332
TAFHOG
TAF
PHOG 302332Z 0100/0124 05017G27KT P6SM FEW030 SCT050
     FM010500 05012KT P6SM FEW030 SCT050
     FM012000 05016G26KT P6SM FEW030 SCT050
      AMD LTD TO VIS AND WIND 0109/0116=

USA.gov is the U.S. government's official web portal to all federal, state and local government web resources and services.